Time;durP1;ratioP1;P1;durP2;ratioP2;P2;SDS_P1;SDS_P2;PMS_P1;PMS_P2;Temp;Humidity;BMP_temperature;BMP_pressure;BME280_temperature;BME280_humidity;BME280_pressure;Samples;Min_cycle;Max_cycle;Signal;HPM_P1;HPM_P2
2023/03/12 00:00:45;;;;;;;1.05;0.95;;;;;;;;;;5134172;27;20046;-62
2023/03/12 00:03:11;;;;;;;0.90;0.73;;;;;;;;;;5132743;27;21234;-63
2023/03/12 00:05:38;;;;;;;2.72;0.70;;;;;;;;;;5133780;27;20071;-62
2023/03/12 00:08:04;;;;;;;2.25;0.98;;;;;;;;;;5136412;27;20047;-62
2023/03/12 00:10:30;;;;;;;1.58;0.70;;;;;;;;;;5137015;27;20051;-62
2023/03/12 00:12:57;;;;;;;0.70;0.60;;;;;;;;;;5138534;27;20038;-62
2023/03/12 00:15:23;;;;;;;0.80;0.60;;;;;;;;;;5131604;27;20039;-61
2023/03/12 00:17:49;;;;;;;1.17;0.98;;;;;;;;;;5138663;27;20115;-62
2023/03/12 00:20:15;;;;;;;0.57;0.57;;;;;;;;;;5133500;27;20059;-62
2023/03/12 00:22:41;;;;;;;1.35;0.70;;;;;;;;;;5132179;27;20049;-62
2023/03/12 00:25:10;;;;;;;0.63;0.60;;;;;;;;;;5138085;27;20043;-62
2023/03/12 00:27:36;;;;;;;0.85;0.60;;;;;;;;;;5131094;27;20042;-62
2023/03/12 00:30:03;;;;;;;0.80;0.75;;;;;;;;;;5133082;27;20034;-62
2023/03/12 00:32:31;;;;;;;0.80;0.60;;;;;;;;;;5129271;27;20489;-62
2023/03/12 00:34:57;;;;;;;1.15;0.65;;;;;;;;;;5133607;27;20035;-62
2023/03/12 00:37:23;;;;;;;2.35;1.00;;;;;;;;;;5136048;27;20696;-62
2023/03/12 00:39:50;;;;;;;0.65;0.45;;;;;;;;;;5132727;27;20034;-62
2023/03/12 00:42:16;;;;;;;0.73;0.60;;;;;;;;;;5135528;27;20050;-63
2023/03/12 00:44:43;;;;;;;0.60;0.60;;;;;;;;;;5125875;27;20078;-63
2023/03/12 00:47:09;;;;;;;0.60;0.60;;;;;;;;;;5127334;27;20070;-62
2023/03/12 00:49:35;;;;;;;0.57;0.57;;;;;;;;;;5125803;27;20035;-62
2023/03/12 00:52:02;;;;;;;0.80;0.65;;;;;;;;;;5129458;27;20129;-62
2023/03/12 00:54:28;;;;;;;0.70;0.60;;;;;;;;;;5127669;27;20054;-62
2023/03/12 00:56:54;;;;;;;0.80;0.70;;;;;;;;;;5125716;27;20039;-63
2023/03/12 00:59:20;;;;;;;0.77;0.60;;;;;;;;;;5138085;27;20041;-62
2023/03/12 01:01:46;;;;;;;2.45;1.20;;;;;;;;;;5132750;27;20053;-62
2023/03/12 01:04:12;;;;;;;0.55;0.55;;;;;;;;;;5124897;27;20095;-63
2023/03/12 01:06:38;;;;;;;1.70;0.70;;;;;;;;;;5124283;27;20200;-62
2023/03/12 01:09:05;;;;;;;0.98;0.90;;;;;;;;;;5124895;27;20138;-61
2023/03/12 01:11:31;;;;;;;1.10;1.00;;;;;;;;;;5130314;27;20043;-63
2023/03/12 01:13:58;;;;;;;0.95;0.55;;;;;;;;;;5125767;27;20063;-62
2023/03/12 01:16:27;;;;;;;2.00;1.00;;;;;;;;;;5124743;27;20054;-63
2023/03/12 01:18:53;;;;;;;1.05;1.00;;;;;;;;;;5130868;27;20047;-62
2023/03/12 01:21:19;;;;;;;0.88;0.85;;;;;;;;;;5125111;27;20039;-62
2023/03/12 01:23:45;;;;;;;1.85;1.15;;;;;;;;;;5139680;27;20520;-62
2023/03/12 01:26:11;;;;;;;0.82;0.75;;;;;;;;;;5126111;27;20369;-62
2023/03/12 01:28:37;;;;;;;1.23;1.02;;;;;;;;;;5125823;27;20043;-61
2023/03/12 01:31:08;;;;;;;0.57;0.57;;;;;;;;;;5126209;27;20027;-62
2023/03/12 01:33:34;;;;;;;0.63;0.50;;;;;;;;;;5128680;27;20142;-63
2023/03/12 01:36:00;;;;;;;2.25;2.05;;;;;;;;;;5128599;27;20039;-62
2023/03/12 01:38:26;;;;;;;0.70;0.60;;;;;;;;;;5124642;27;20041;-63
2023/03/12 01:40:52;;;;;;;1.10;0.60;;;;;;;;;;5124544;27;20422;-62
2023/03/12 01:43:21;;;;;;;0.55;0.50;;;;;;;;;;5131511;27;20042;-62
2023/03/12 01:46:00;;;;;;;0.63;0.63;;;;;;;;;;5137125;27;20056;-62
2023/03/12 01:48:31;;;;;;;0.50;0.50;;;;;;;;;;5135169;27;20127;-62
2023/03/12 01:50:58;;;;;;;1.05;0.52;;;;;;;;;;5130663;27;20107;-62
2023/03/12 01:53:24;;;;;;;0.73;0.70;;;;;;;;;;5133021;27;20053;-62
2023/03/12 01:55:51;;;;;;;0.80;0.80;;;;;;;;;;5139992;27;20579;-61
2023/03/12 01:58:17;;;;;;;0.70;0.70;;;;;;;;;;5123549;27;20050;-62
2023/03/12 02:00:44;;;;;;;1.58;0.80;;;;;;;;;;5138893;27;20524;-63
2023/03/12 02:03:10;;;;;;;0.88;0.70;;;;;;;;;;5137175;27;20054;-63
2023/03/12 02:05:53;;;;;;;1.30;0.77;;;;;;;;;;5135973;27;20050;-62
2023/03/12 02:08:19;;;;;;;0.90;0.70;;;;;;;;;;5139102;27;20528;-62
2023/03/12 02:10:46;;;;;;;1.45;1.20;;;;;;;;;;5140205;27;20039;-63
2023/03/12 02:13:12;;;;;;;1.25;1.15;;;;;;;;;;5139257;27;20039;-62
2023/03/12 02:15:38;;;;;;;1.13;0.90;;;;;;;;;;5141598;27;20050;-62
2023/03/12 02:18:06;;;;;;;0.80;0.75;;;;;;;;;;5136777;27;20039;-62
2023/03/12 02:20:39;;;;;;;0.82;0.75;;;;;;;;;;5135958;27;20111;-62
2023/03/12 02:23:28;;;;;;;1.30;0.88;;;;;;;;;;5134461;27;20047;-62
2023/03/12 02:25:55;;;;;;;1.05;0.73;;;;;;;;;;5124675;27;20051;-62
2023/03/12 02:28:22;;;;;;;0.70;0.70;;;;;;;;;;5141466;27;20521;-62
2023/03/12 02:30:50;;;;;;;0.73;0.70;;;;;;;;;;5133867;27;20053;-64
2023/03/12 02:33:17;;;;;;;1.15;0.85;;;;;;;;;;5141749;27;20152;-62
2023/03/12 02:35:45;;;;;;;1.25;0.70;;;;;;;;;;5138523;27;20043;-63
2023/03/12 02:38:31;;;;;;;0.80;0.80;;;;;;;;;;5132671;27;20489;-62
2023/03/12 02:40:58;;;;;;;0.70;0.50;;;;;;;;;;5133355;27;20049;-62
2023/03/12 02:43:24;;;;;;;1.15;0.80;;;;;;;;;;5131724;27;20160;-62
2023/03/12 02:45:50;;;;;;;0.77;0.57;;;;;;;;;;5134313;27;20045;-62
2023/03/12 02:48:16;;;;;;;0.50;0.50;;;;;;;;;;5139469;27;20042;-62
2023/03/12 02:50:42;;;;;;;0.68;0.52;;;;;;;;;;5138723;27;20061;-63
2023/03/12 02:53:08;;;;;;;0.77;0.77;;;;;;;;;;5135102;27;20402;-62
2023/03/12 02:55:34;;;;;;;1.00;0.70;;;;;;;;;;5139041;27;20047;-62
2023/03/12 02:58:00;;;;;;;0.70;0.70;;;;;;;;;;5137548;27;20047;-62
2023/03/12 03:00:26;;;;;;;0.52;0.47;;;;;;;;;;5140958;27;20031;-62
2023/03/12 03:02:52;;;;;;;0.85;0.65;;;;;;;;;;5133199;27;20045;-62
2023/03/12 03:05:19;;;;;;;0.50;0.50;;;;;;;;;;5140976;27;20043;-62
2023/03/12 03:07:45;;;;;;;0.57;0.40;;;;;;;;;;5135412;27;20814;-62
2023/03/12 03:10:11;;;;;;;0.43;0.40;;;;;;;;;;5138191;27;20597;-62
2023/03/12 03:12:37;;;;;;;0.32;0.32;;;;;;;;;;5137872;27;20043;-63
2023/03/12 03:15:03;;;;;;;0.52;0.35;;;;;;;;;;5140388;27;20121;-62
2023/03/12 03:17:29;;;;;;;0.75;0.47;;;;;;;;;;5136568;27;20115;-62
2023/03/12 03:19:55;;;;;;;0.32;0.30;;;;;;;;;;5144397;27;20035;-64
2023/03/12 03:22:22;;;;;;;0.52;0.43;;;;;;;;;;5136249;27;20475;-62
2023/03/12 03:24:48;;;;;;;0.50;0.50;;;;;;;;;;5136461;27;20046;-62
2023/03/12 03:27:14;;;;;;;0.73;0.70;;;;;;;;;;5135585;27;20116;-62
2023/03/12 03:29:41;;;;;;;0.63;0.63;;;;;;;;;;5133172;27;20055;-62
2023/03/12 03:32:07;;;;;;;0.30;0.30;;;;;;;;;;5135465;27;20031;-63
2023/03/12 03:34:33;;;;;;;0.63;0.50;;;;;;;;;;5132685;27;20043;-61
2023/03/12 03:36:59;;;;;;;0.40;0.40;;;;;;;;;;5139885;27;20039;-62
2023/03/12 03:39:27;;;;;;;0.57;0.52;;;;;;;;;;5135255;27;20156;-63
2023/03/12 03:41:53;;;;;;;1.13;0.68;;;;;;;;;;5135347;27;20043;-63
2023/03/12 03:44:21;;;;;;;0.80;0.80;;;;;;;;;;5135655;27;20056;-62
2023/03/12 03:46:47;;;;;;;1.33;0.60;;;;;;;;;;5139584;27;20858;-62
2023/03/12 03:49:14;;;;;;;1.58;1.05;;;;;;;;;;5137276;27;20034;-62
2023/03/12 03:51:43;;;;;;;1.25;0.70;;;;;;;;;;5137757;27;20607;-62
2023/03/12 03:54:10;;;;;;;1.35;0.95;;;;;;;;;;5135191;27;20397;-62
2023/03/12 03:56:36;;;;;;;1.20;1.10;;;;;;;;;;5134725;27;20501;-62
2023/03/12 03:59:02;;;;;;;1.27;1.17;;;;;;;;;;5136081;27;20047;-62
2023/03/12 04:01:30;;;;;;;2.38;1.55;;;;;;;;;;5136905;27;20123;-62
2023/03/12 04:03:56;;;;;;;1.35;1.17;;;;;;;;;;5135357;27;20034;-62
2023/03/12 04:06:22;;;;;;;1.27;1.17;;;;;;;;;;5118828;27;20446;-62
2023/03/12 04:08:48;;;;;;;0.85;0.82;;;;;;;;;;5136414;27;20180;-62
2023/03/12 04:11:15;;;;;;;1.27;1.05;;;;;;;;;;5137996;27;20198;-62
2023/03/12 04:13:42;;;;;;;1.20;1.10;;;;;;;;;;5139526;27;20070;-62
2023/03/12 04:16:09;;;;;;;1.23;1.00;;;;;;;;;;5137778;27;20043;-61
2023/03/12 04:18:35;;;;;;;0.82;0.73;;;;;;;;;;5137421;27;20042;-62
2023/03/12 04:21:02;;;;;;;0.95;0.88;;;;;;;;;;5138541;27;20092;-62
2023/03/12 04:23:27;;;;;;;1.20;1.10;;;;;;;;;;5135577;27;20046;-62
2023/03/12 04:25:53;;;;;;;0.82;0.82;;;;;;;;;;5135400;27;20031;-62
2023/03/12 04:28:19;;;;;;;1.25;0.93;;;;;;;;;;5133776;27;20103;-62
2023/03/12 04:30:53;;;;;;;2.35;1.25;;;;;;;;;;5135195;27;20042;-62
2023/03/12 04:33:19;;;;;;;1.40;1.25;;;;;;;;;;5133152;27;20099;-62
2023/03/12 04:35:52;;;;;;;0.82;0.82;;;;;;;;;;5137640;27;20106;-63
2023/03/12 04:38:18;;;;;;;1.90;1.30;;;;;;;;;;5137398;27;20039;-62
2023/03/12 04:40:44;;;;;;;0.98;0.90;;;;;;;;;;5135612;27;20409;-63
2023/03/12 04:43:10;;;;;;;0.90;0.85;;;;;;;;;;5135182;27;20043;-62
2023/03/12 04:45:38;;;;;;;1.40;1.27;;;;;;;;;;5138342;27;20078;-62
2023/03/12 04:48:04;;;;;;;1.40;1.23;;;;;;;;;;5137715;27;20129;-62
2023/03/12 04:50:30;;;;;;;1.45;1.20;;;;;;;;;;5136696;27;20043;-64
2023/03/12 04:52:56;;;;;;;1.30;1.20;;;;;;;;;;5132954;27;20106;-62
2023/03/12 04:55:22;;;;;;;1.33;1.17;;;;;;;;;;5139582;27;20492;-62
2023/03/12 04:57:48;;;;;;;0.77;0.77;;;;;;;;;;5135183;27;20040;-62
2023/03/12 05:00:14;;;;;;;1.10;1.00;;;;;;;;;;5135156;27;20768;-63
2023/03/12 05:02:41;;;;;;;0.82;0.82;;;;;;;;;;5131546;27;20723;-62
2023/03/12 05:05:07;;;;;;;2.05;1.20;;;;;;;;;;5135877;27;20584;-62
2023/03/12 05:07:34;;;;;;;1.50;1.30;;;;;;;;;;5134304;27;20142;-62
2023/03/12 05:10:00;;;;;;;1.85;1.55;;;;;;;;;;5137675;27;20047;-62
2023/03/12 05:12:26;;;;;;;1.50;1.30;;;;;;;;;;5139597;27;20034;-63
2023/03/12 05:14:52;;;;;;;1.30;1.20;;;;;;;;;;5137378;27;20031;-62
2023/03/12 05:17:18;;;;;;;1.92;1.55;;;;;;;;;;5134263;27;20404;-62
2023/03/12 05:19:45;;;;;;;1.45;1.35;;;;;;;;;;5133816;27;20051;-63
2023/03/12 05:22:11;;;;;;;1.63;1.52;;;;;;;;;;5133479;27;20759;-63
2023/03/12 05:24:37;;;;;;;2.95;1.20;;;;;;;;;;5135369;27;20058;-62
2023/03/12 05:27:03;;;;;;;2.03;1.30;;;;;;;;;;5137697;27;20446;-62
2023/03/12 05:29:34;;;;;;;1.80;1.20;;;;;;;;;;5132258;27;20051;-62
2023/03/12 05:32:00;;;;;;;1.55;1.40;;;;;;;;;;5137066;27;20509;-62
2023/03/12 05:34:27;;;;;;;2.50;1.65;;;;;;;;;;5134167;27;20681;-62
2023/03/12 05:36:53;;;;;;;2.10;1.73;;;;;;;;;;5132902;27;20101;-62
2023/03/12 05:39:20;;;;;;;2.55;1.77;;;;;;;;;;5133954;27;20684;-62
2023/03/12 05:41:45;;;;;;;2.10;1.90;;;;;;;;;;5129564;27;20047;-62
2023/03/12 05:44:13;;;;;;;2.80;1.67;;;;;;;;;;5139139;27;20354;-63
2023/03/12 05:46:39;;;;;;;1.90;1.58;;;;;;;;;;5133875;27;20058;-62
2023/03/12 05:49:05;;;;;;;2.50;1.75;;;;;;;;;;5131609;27;20043;-62
2023/03/12 05:51:31;;;;;;;2.78;1.45;;;;;;;;;;5134273;27;20035;-63
2023/03/12 05:53:58;;;;;;;3.10;2.47;;;;;;;;;;5135141;27;20054;-61
2023/03/12 05:56:24;;;;;;;1.40;1.15;;;;;;;;;;5137191;27;20727;-62
2023/03/12 05:58:50;;;;;;;1.40;1.20;;;;;;;;;;5129473;27;20031;-60
2023/03/12 06:01:18;;;;;;;2.28;1.60;;;;;;;;;;5131644;27;20039;-62
2023/03/12 06:03:44;;;;;;;1.83;1.40;;;;;;;;;;5130475;27;20043;-62
2023/03/12 06:06:10;;;;;;;3.17;1.60;;;;;;;;;;5132310;27;20054;-62
2023/03/12 06:08:36;;;;;;;3.05;2.05;;;;;;;;;;5133338;27;20051;-62
2023/03/12 06:11:02;;;;;;;1.75;1.60;;;;;;;;;;5132045;27;20095;-62
2023/03/12 06:13:28;;;;;;;2.30;1.85;;;;;;;;;;5133438;27;20130;-62
2023/03/12 06:15:54;;;;;;;2.75;2.10;;;;;;;;;;5130387;27;20092;-62
2023/03/12 06:18:20;;;;;;;1.88;1.67;;;;;;;;;;5135743;27;20046;-62
2023/03/12 06:20:46;;;;;;;2.00;1.80;;;;;;;;;;5133926;27;20043;-62
2023/03/12 06:23:12;;;;;;;1.48;1.35;;;;;;;;;;5129765;27;20039;-62
2023/03/12 06:25:38;;;;;;;3.63;1.90;;;;;;;;;;5134007;27;20095;-62
2023/03/12 06:28:04;;;;;;;2.38;1.50;;;;;;;;;;5134987;27;20047;-60
2023/03/12 06:30:30;;;;;;;1.85;1.65;;;;;;;;;;5136089;27;20043;-62
2023/03/12 06:32:56;;;;;;;2.42;1.65;;;;;;;;;;5132838;27;20039;-62
2023/03/12 06:35:22;;;;;;;1.67;1.23;;;;;;;;;;5134879;27;20417;-63
2023/03/12 06:37:48;;;;;;;1.92;1.50;;;;;;;;;;5133946;27;20053;-62
2023/03/12 06:40:14;;;;;;;2.83;2.30;;;;;;;;;;5131210;27;20043;-62
2023/03/12 06:42:40;;;;;;;2.35;1.70;;;;;;;;;;5137616;27;21029;-65
2023/03/12 06:45:07;;;;;;;1.70;1.60;;;;;;;;;;5134125;27;20538;-63
2023/03/12 06:47:33;;;;;;;2.20;1.65;;;;;;;;;;5136656;27;20042;-62
2023/03/12 06:49:59;;;;;;;3.38;1.80;;;;;;;;;;5139456;27;20831;-62
2023/03/12 06:52:25;;;;;;;1.98;1.85;;;;;;;;;;5132189;27;20740;-62
2023/03/12 06:54:51;;;;;;;2.20;1.80;;;;;;;;;;5136083;27;20050;-62
2023/03/12 06:57:17;;;;;;;2.90;2.05;;;;;;;;;;5142955;27;20092;-62
2023/03/12 06:59:44;;;;;;;2.58;2.00;;;;;;;;;;5137488;27;20047;-62
2023/03/12 07:02:11;;;;;;;2.63;2.00;;;;;;;;;;5136718;27;20557;-63
2023/03/12 07:04:37;;;;;;;5.28;2.65;;;;;;;;;;5136285;27;20039;-62
2023/03/12 07:07:03;;;;;;;5.90;3.05;;;;;;;;;;5136139;27;20496;-62
2023/03/12 07:09:29;;;;;;;4.32;3.40;;;;;;;;;;5138706;27;20497;-60
2023/03/12 07:11:55;;;;;;;3.38;3.00;;;;;;;;;;5130733;27;20042;-61
2023/03/12 07:14:21;;;;;;;4.38;3.10;;;;;;;;;;5140810;27;20300;-62
2023/03/12 07:16:47;;;;;;;7.15;4.13;;;;;;;;;;5143158;27;20043;-61
2023/03/12 07:19:13;;;;;;;4.45;3.75;;;;;;;;;;5135312;27;20042;-62
2023/03/12 07:21:39;;;;;;;4.57;3.53;;;;;;;;;;5134353;27;20412;-62
2023/03/12 07:24:07;;;;;;;11.40;4.55;;;;;;;;;;5136522;27;20062;-62
2023/03/12 07:26:34;;;;;;;5.40;4.13;;;;;;;;;;5136248;27;20070;-61
2023/03/12 07:29:00;;;;;;;6.57;4.45;;;;;;;;;;5142368;27;20056;-62
2023/03/12 07:31:26;;;;;;;5.50;4.47;;;;;;;;;;5123281;27;20078;-62
2023/03/12 07:33:52;;;;;;;6.75;4.45;;;;;;;;;;5137376;27;20401;-62
2023/03/12 07:36:18;;;;;;;7.20;4.85;;;;;;;;;;5138645;27;20047;-63
2023/03/12 07:38:44;;;;;;;4.78;4.28;;;;;;;;;;5137839;27;20057;-62
2023/03/12 07:41:10;;;;;;;7.22;4.20;;;;;;;;;;5136222;27;20612;-62
2023/03/12 07:43:36;;;;;;;5.82;4.70;;;;;;;;;;5119017;27;20039;-60
2023/03/12 07:46:02;;;;;;;5.47;4.90;;;;;;;;;;5136830;27;20039;-62
2023/03/12 07:48:28;;;;;;;7.82;4.70;;;;;;;;;;5136367;27;20120;-62
2023/03/12 07:50:54;;;;;;;5.57;4.38;;;;;;;;;;5135054;27;20082;-62
2023/03/12 07:53:20;;;;;;;6.47;4.63;;;;;;;;;;5137865;27;20039;-63
2023/03/12 07:55:47;;;;;;;9.02;4.25;;;;;;;;;;5138764;27;20433;-62
2023/03/12 07:58:14;;;;;;;6.78;4.47;;;;;;;;;;5140081;27;20465;-62
2023/03/12 08:00:40;;;;;;;4.88;4.32;;;;;;;;;;5134472;27;20039;-62
2023/03/12 08:03:06;;;;;;;5.30;4.38;;;;;;;;;;5136220;27;20054;-62
2023/03/12 08:05:32;;;;;;;5.55;4.90;;;;;;;;;;5132151;27;20039;-62
2023/03/12 08:07:58;;;;;;;4.65;4.20;;;;;;;;;;5138126;27;20429;-60
2023/03/12 08:10:24;;;;;;;5.60;4.40;;;;;;;;;;5134249;27;20043;-62
2023/03/12 08:12:50;;;;;;;5.18;4.50;;;;;;;;;;5138593;27;20057;-62
2023/03/12 08:15:16;;;;;;;5.55;4.53;;;;;;;;;;5135350;27;20026;-62
2023/03/12 08:17:42;;;;;;;5.35;3.92;;;;;;;;;;5116993;27;20418;-61
2023/03/12 08:20:09;;;;;;;6.32;4.00;;;;;;;;;;5137469;27;20443;-62
2023/03/12 08:22:36;;;;;;;4.38;3.95;;;;;;;;;;5132704;27;20039;-62
2023/03/12 08:25:02;;;;;;;9.50;5.03;;;;;;;;;;5136117;27;20453;-62
2023/03/12 08:27:29;;;;;;;6.55;4.50;;;;;;;;;;5134696;27;20051;-62
2023/03/12 08:29:55;;;;;;;8.70;5.18;;;;;;;;;;5138771;27;20042;-62
2023/03/12 08:32:21;;;;;;;6.68;5.45;;;;;;;;;;5134927;27;20034;-62
2023/03/12 08:34:47;;;;;;;9.75;5.75;;;;;;;;;;5133468;27;20130;-63
2023/03/12 08:37:13;;;;;;;6.70;5.82;;;;;;;;;;5144983;27;20035;-62
2023/03/12 08:39:40;;;;;;;5.72;5.00;;;;;;;;;;5135072;27;20047;-62
2023/03/12 08:42:06;;;;;;;5.82;5.18;;;;;;;;;;5136161;27;20159;-63
2023/03/12 08:44:32;;;;;;;5.30;4.80;;;;;;;;;;5140102;27;20460;-60
2023/03/12 08:46:58;;;;;;;5.82;5.22;;;;;;;;;;5142246;27;20133;-58
2023/03/12 08:49:25;;;;;;;6.03;5.40;;;;;;;;;;5139207;27;20172;-58
2023/03/12 08:51:51;;;;;;;5.97;5.47;;;;;;;;;;5137872;27;20485;-63
2023/03/12 08:54:18;;;;;;;6.88;6.15;;;;;;;;;;5135413;27;20046;-63
2023/03/12 08:56:45;;;;;;;7.10;5.65;;;;;;;;;;5139323;27;20832;-62
2023/03/12 08:59:11;;;;;;;9.23;5.72;;;;;;;;;;5138048;27;20062;-62
2023/03/12 09:01:37;;;;;;;9.75;6.35;;;;;;;;;;5144370;27;20393;-62
2023/03/12 09:04:04;;;;;;;6.20;5.20;;;;;;;;;;5136088;27;20039;-62
2023/03/12 09:06:30;;;;;;;5.85;5.00;;;;;;;;;;5139522;27;20453;-63
2023/03/12 09:08:56;;;;;;;7.25;4.78;;;;;;;;;;5131915;27;20046;-62
2023/03/12 09:11:22;;;;;;;7.95;5.72;;;;;;;;;;5135068;27;20043;-62
2023/03/12 09:13:48;;;;;;;6.55;4.88;;;;;;;;;;5134374;27;20122;-63
2023/03/12 09:16:14;;;;;;;5.63;5.13;;;;;;;;;;5139529;27;20047;-62
2023/03/12 09:18:40;;;;;;;5.72;4.55;;;;;;;;;;5137736;27;20054;-62
2023/03/12 09:21:06;;;;;;;5.88;4.50;;;;;;;;;;5136531;27;20039;-61
2023/03/12 09:23:32;;;;;;;5.32;4.80;;;;;;;;;;5131093;27;20043;-62
2023/03/12 09:25:58;;;;;;;5.40;4.85;;;;;;;;;;5136789;27;20127;-63
2023/03/12 09:28:24;;;;;;;6.28;4.88;;;;;;;;;;5119273;27;20149;-61
2023/03/12 09:30:50;;;;;;;6.00;4.68;;;;;;;;;;5141424;27;20134;-61
2023/03/12 09:33:17;;;;;;;6.97;5.25;;;;;;;;;;5134790;27;20579;-62
2023/03/12 09:35:43;;;;;;;8.57;6.70;;;;;;;;;;5145343;27;20528;-62
2023/03/12 09:38:12;;;;;;;6.18;5.38;;;;;;;;;;5144461;27;20050;-61
2023/03/12 09:40:38;;;;;;;5.55;5.03;;;;;;;;;;5135910;27;20716;-60
2023/03/12 09:43:10;;;;;;;6.75;5.38;;;;;;;;;;5137862;27;20065;-60
2023/03/12 09:45:38;;;;;;;7.55;5.03;;;;;;;;;;5145970;27;20043;-62
2023/03/12 09:48:06;;;;;;;5.38;4.82;;;;;;;;;;5140451;27;20474;-62
2023/03/12 09:50:33;;;;;;;6.72;6.13;;;;;;;;;;5145729;27;20038;-63
2023/03/12 09:53:02;;;;;;;5.88;5.30;;;;;;;;;;5133709;27;20099;-62
2023/03/12 09:55:35;;;;;;;5.97;4.80;;;;;;;;;;5142555;27;20050;-62
2023/03/12 09:58:01;;;;;;;5.78;5.25;;;;;;;;;;5137811;27;20050;-61
2023/03/12 10:00:30;;;;;;;6.20;5.15;;;;;;;;;;5146075;27;20042;-62
2023/03/12 10:03:02;;;;;;;5.28;4.78;;;;;;;;;;5141518;27;20096;-62
2023/03/12 10:05:35;;;;;;;5.88;5.25;;;;;;;;;;5145077;27;20049;-63
2023/03/12 10:08:08;;;;;;;5.57;5.07;;;;;;;;;;5134899;27;20079;-62
2023/03/12 10:10:54;;;;;;;6.00;5.40;;;;;;;;;;5137386;27;20584;-62
2023/03/12 10:13:28;;;;;;;5.95;5.43;;;;;;;;;;5136159;27;20448;-61
2023/03/12 10:16:06;;;;;;;7.97;5.35;;;;;;;;;;5134559;27;21508;-60
2023/03/12 10:18:33;;;;;;;4.63;4.20;;;;;;;;;;5139077;27;20042;-59
2023/03/12 10:21:19;;;;;;;6.45;4.45;;;;;;;;;;5137460;27;20497;-60
2023/03/12 10:23:59;;;;;;;5.85;4.40;;;;;;;;;;5130656;27;20050;-62
2023/03/12 10:26:35;;;;;;;5.47;4.97;;;;;;;;;;5135433;27;20039;-60
2023/03/12 10:29:05;;;;;;;5.68;5.15;;;;;;;;;;5135747;27;20516;-62
2023/03/12 10:31:35;;;;;;;6.00;5.50;;;;;;;;;;5130201;27;20083;-61
2023/03/12 10:34:02;;;;;;;4.93;4.53;;;;;;;;;;5133143;27;20054;-61
2023/03/12 10:36:38;;;;;;;5.55;5.00;;;;;;;;;;5131391;27;20045;-61
2023/03/12 10:39:10;;;;;;;7.72;5.78;;;;;;;;;;5135545;27;20377;-59
2023/03/12 10:41:36;;;;;;;5.97;5.40;;;;;;;;;;5138116;27;20458;-59
2023/03/12 10:44:05;;;;;;;5.93;5.43;;;;;;;;;;5128775;27;20078;-59
2023/03/12 10:46:46;;;;;;;5.90;5.30;;;;;;;;;;5140011;27;20049;-60
2023/03/12 10:49:21;;;;;;;6.20;5.57;;;;;;;;;;5133328;27;20039;-59
2023/03/12 10:52:07;;;;;;;5.82;5.28;;;;;;;;;;5144512;27;20492;-59
2023/03/12 10:54:34;;;;;;;5.32;4.82;;;;;;;;;;5141226;27;20092;-59
2023/03/12 10:57:00;;;;;;;7.03;5.55;;;;;;;;;;5140112;27;20034;-61
2023/03/12 10:59:28;;;;;;;5.57;5.07;;;;;;;;;;5134244;27;20061;-60
2023/03/12 11:01:54;;;;;;;5.20;4.80;;;;;;;;;;5141410;27;20940;-59
2023/03/12 11:04:26;;;;;;;5.85;5.30;;;;;;;;;;5135424;27;20046;-60
2023/03/12 11:07:04;;;;;;;5.35;4.95;;;;;;;;;;5138150;27;20042;-60
2023/03/12 11:09:30;;;;;;;7.45;5.78;;;;;;;;;;5133960;27;20051;-60
2023/03/12 11:11:56;;;;;;;8.60;5.47;;;;;;;;;;5136563;27;20915;-60
2023/03/12 11:14:23;;;;;;;7.13;5.72;;;;;;;;;;5139209;27;20121;-58
2023/03/12 11:16:50;;;;;;;6.05;5.00;;;;;;;;;;5144712;27;20442;-60
2023/03/12 11:19:32;;;;;;;5.95;5.35;;;;;;;;;;5142839;27;20042;-61
2023/03/12 11:22:03;;;;;;;6.57;5.70;;;;;;;;;;5118342;27;20370;-60
2023/03/12 11:24:29;;;;;;;7.97;6.22;;;;;;;;;;5142379;27;20515;-59
2023/03/12 11:27:16;;;;;;;6.05;5.55;;;;;;;;;;5139153;27;20046;-59
2023/03/12 11:29:48;;;;;;;7.28;6.28;;;;;;;;;;5138644;27;20060;-59
2023/03/12 11:32:19;;;;;;;7.05;5.57;;;;;;;;;;5138399;27;20121;-59
2023/03/12 11:34:48;;;;;;;6.88;5.20;;;;;;;;;;5139566;27;20034;-59
2023/03/12 11:37:26;;;;;;;5.80;5.22;;;;;;;;;;5133792;27;20652;-60
2023/03/12 11:39:55;;;;;;;8.10;6.53;;;;;;;;;;5131393;27;20057;-59
2023/03/12 11:42:34;;;;;;;6.18;5.57;;;;;;;;;;5126745;27;20074;-60
2023/03/12 11:45:29;;;;;;;7.60;6.80;;;;;;;;;;5135276;27;20035;-59
2023/03/12 11:48:01;;;;;;;6.28;5.68;;;;;;;;;;5120784;27;20498;-60
2023/03/12 11:50:36;;;;;;;6.28;5.68;;;;;;;;;;5139737;27;20074;-59
2023/03/12 11:53:21;;;;;;;8.20;6.03;;;;;;;;;;5134675;27;20070;-60
2023/03/12 11:55:57;;;;;;;8.20;7.35;;;;;;;;;;5137075;27;20074;-60
2023/03/12 11:58:53;;;;;;;7.45;6.68;;;;;;;;;;5136949;27;20038;-59
2023/03/12 12:01:28;;;;;;;8.00;6.70;;;;;;;;;;5109320;27;20051;-60
2023/03/12 12:04:00;;;;;;;8.63;6.53;;;;;;;;;;5133712;27;20078;-59
2023/03/12 12:06:43;;;;;;;9.50;7.95;;;;;;;;;;5140024;27;20042;-60
2023/03/12 12:09:12;;;;;;;8.85;7.95;;;;;;;;;;5146201;27;20460;-59
2023/03/12 12:11:44;;;;;;;8.45;7.57;;;;;;;;;;5155842;27;20594;-59
2023/03/12 12:14:15;;;;;;;8.23;7.43;;;;;;;;;;5154422;27;20580;-59
2023/03/12 12:16:59;;;;;;;8.25;7.55;;;;;;;;;;5128687;27;20166;-60
2023/03/12 12:19:41;;;;;;;8.18;7.38;;;;;;;;;;5132401;27;20039;-58
2023/03/12 12:22:26;;;;;;;9.95;7.82;;;;;;;;;;5133382;27;20045;-60
2023/03/12 12:24:52;;;;;;;8.13;7.32;;;;;;;;;;5137251;27;20047;-61
2023/03/12 12:27:24;;;;;;;9.75;8.75;;;;;;;;;;5131986;27;20047;-60
2023/03/12 12:30:08;;;;;;;8.25;7.43;;;;;;;;;;5114345;27;20053;-61
2023/03/12 12:32:37;;;;;;;10.50;7.88;;;;;;;;;;5143270;27;20043;-59
2023/03/12 12:35:07;;;;;;;10.18;8.27;;;;;;;;;;5136326;27;20068;-61
2023/03/12 12:37:33;;;;;;;8.70;7.88;;;;;;;;;;5140867;27;20053;-60
2023/03/12 12:40:07;;;;;;;7.88;7.18;;;;;;;;;;5138883;27;20039;-61
2023/03/12 12:42:35;;;;;;;10.73;8.25;;;;;;;;;;5128282;27;20681;-60
2023/03/12 12:45:02;;;;;;;8.52;7.28;;;;;;;;;;5137977;27;20034;-60
2023/03/12 12:47:38;;;;;;;8.13;7.32;;;;;;;;;;5139192;27;20100;-59
2023/03/12 12:50:04;;;;;;;9.82;7.53;;;;;;;;;;5131345;27;20039;-59
2023/03/12 12:52:30;;;;;;;11.38;8.63;;;;;;;;;;5135886;27;20375;-62
2023/03/12 12:55:02;;;;;;;10.88;9.00;;;;;;;;;;5130381;27;20050;-62
2023/03/12 12:57:28;;;;;;;11.80;7.72;;;;;;;;;;5131912;27;20382;-63
2023/03/12 12:59:57;;;;;;;14.43;8.82;;;;;;;;;;5137700;27;20055;-63
2023/03/12 13:02:28;;;;;;;10.55;7.70;;;;;;;;;;5140055;27;20122;-62
2023/03/12 13:04:56;;;;;;;9.85;7.20;;;;;;;;;;5139333;27;20087;-62
2023/03/12 13:07:22;;;;;;;9.95;7.20;;;;;;;;;;5138103;27;20390;-62
2023/03/12 13:09:55;;;;;;;12.40;8.57;;;;;;;;;;5142528;27;20134;-63
2023/03/12 13:12:26;;;;;;;15.95;9.30;;;;;;;;;;5129518;27;20145;-62
2023/03/12 13:14:54;;;;;;;15.10;8.57;;;;;;;;;;5144784;27;20096;-64
2023/03/12 13:17:24;;;;;;;14.18;8.57;;;;;;;;;;5135696;27;20035;-63
2023/03/12 13:19:51;;;;;;;10.95;7.72;;;;;;;;;;5143929;27;20081;-62
2023/03/12 13:22:17;;;;;;;12.85;8.05;;;;;;;;;;5143036;27;20106;-62
2023/03/12 13:25:01;;;;;;;14.00;8.50;;;;;;;;;;5131421;27;20038;-62
2023/03/12 13:27:36;;;;;;;14.45;8.43;;;;;;;;;;5129927;27;20050;-62
2023/03/12 13:30:21;;;;;;;17.65;8.48;;;;;;;;;;5131904;27;20499;-62
2023/03/12 13:32:46;;;;;;;20.98;8.77;;;;;;;;;;5141530;27;20039;-62
2023/03/12 13:35:12;;;;;;;14.65;8.23;;;;;;;;;;5139148;27;20381;-62
2023/03/12 13:37:50;;;;;;;15.57;7.93;;;;;;;;;;5139958;27;20047;-62
2023/03/12 13:40:29;;;;;;;20.50;7.53;;;;;;;;;;5139057;27;20042;-62
2023/03/12 13:43:07;;;;;;;13.35;6.68;;;;;;;;;;5134321;27;20484;-62
2023/03/12 13:45:34;;;;;;;13.77;6.38;;;;;;;;;;5136602;27;20428;-62
2023/03/12 13:48:01;;;;;;;14.63;6.80;;;;;;;;;;5139391;27;20049;-62
2023/03/12 13:50:29;;;;;;;18.30;6.35;;;;;;;;;;5136320;27;20051;-62
2023/03/12 13:53:18;;;;;;;21.42;6.38;;;;;;;;;;5148271;27;20050;-62
2023/03/12 13:55:45;;;;;;;19.23;6.05;;;;;;;;;;5116629;27;20050;-63
2023/03/12 13:58:22;;;;;;;12.90;4.57;;;;;;;;;;5140357;27;20047;-62
2023/03/12 14:00:48;;;;;;;10.38;3.75;;;;;;;;;;5137477;27;20047;-62
2023/03/12 14:03:32;;;;;;;17.42;4.43;;;;;;;;;;5129665;27;20814;-62
2023/03/12 14:05:59;;;;;;;22.08;5.47;;;;;;;;;;5132606;27;20051;-63
2023/03/12 14:08:39;;;;;;;27.63;6.10;;;;;;;;;;5146455;27;20070;-62
2023/03/12 14:11:23;;;;;;;15.68;4.55;;;;;;;;;;5141297;27;20116;-63
2023/03/12 14:14:07;;;;;;;15.13;4.43;;;;;;;;;;5148861;27;20047;-62
2023/03/12 14:16:38;;;;;;;19.90;4.93;;;;;;;;;;5142492;27;20039;-62
2023/03/12 14:19:05;;;;;;;17.35;4.85;;;;;;;;;;5130853;27;20047;-58
2023/03/12 14:21:35;;;;;;;22.10;5.35;;;;;;;;;;5151680;27;20042;-59
2023/03/12 14:24:03;;;;;;;18.92;6.00;;;;;;;;;;5158633;27;20051;-62
2023/03/12 14:26:34;;;;;;;19.65;5.25;;;;;;;;;;5155728;27;20042;-61
2023/03/12 14:29:03;;;;;;;21.48;4.93;;;;;;;;;;5151487;27;20042;-62
2023/03/12 14:31:30;;;;;;;18.98;5.00;;;;;;;;;;5154328;27;20133;-62
2023/03/12 14:34:02;;;;;;;20.48;5.47;;;;;;;;;;5165417;27;20460;-61
2023/03/12 14:36:35;;;;;;;19.15;4.25;;;;;;;;;;5164858;27;20484;-61
2023/03/12 14:39:20;;;;;;;15.70;4.78;;;;;;;;;;5145365;27;20046;-62
2023/03/12 14:41:49;;;;;;;20.95;5.60;;;;;;;;;;5155300;27;20064;-61
2023/03/12 14:44:25;;;;;;;23.80;6.13;;;;;;;;;;5154047;27;20070;-62
2023/03/12 14:46:55;;;;;;;22.90;5.47;;;;;;;;;;5144186;27;20047;-61
2023/03/12 14:49:21;;;;;;;23.92;5.40;;;;;;;;;;5145363;27;20155;-62